createdAt,value
2019-03-10T00:00:32.724Z,99594.70
2019-03-10T00:02:58.877Z,99598.77
2019-03-10T00:05:25.027Z,99594.08
2019-03-10T00:07:51.231Z,99595.39
2019-03-10T00:10:17.426Z,99598.45
2019-03-10T00:12:43.663Z,99594.74
2019-03-10T00:15:11.256Z,99601.62
2019-03-10T00:17:37.411Z,99589.75
2019-03-10T00:20:08.986Z,99591.66
2019-03-10T00:22:35.173Z,99589.67
2019-03-10T00:25:01.633Z,99587.38
2019-03-10T00:27:28.084Z,99589.39
2019-03-10T00:29:54.277Z,99591.75
2019-03-10T00:32:20.422Z,99582.75
2019-03-10T00:34:46.592Z,99589.77
2019-03-10T00:37:12.785Z,99589.77
2019-03-10T00:39:51.410Z,99595.25
2019-03-10T00:42:37.934Z,99588.16
2019-03-10T00:45:24.376Z,99592.27
2019-03-10T00:48:11.721Z,99580.24
2019-03-10T00:51:01.060Z,99589.14
2019-03-10T00:53:27.238Z,99583.30
2019-03-10T00:55:53.396Z,99576.33
2019-03-10T00:58:19.570Z,99574.14
2019-03-10T01:00:45.755Z,99570.69
2019-03-10T01:03:11.910Z,99571.06
2019-03-10T01:05:38.192Z,99562.70
2019-03-10T01:08:04.751Z,99564.75
2019-03-10T01:10:31.110Z,99582.19
2019-03-10T01:12:57.275Z,99582.14
2019-03-10T01:15:23.470Z,99585.72
2019-03-10T01:17:51.523Z,99577.36
2019-03-10T01:20:17.795Z,99573.31
2019-03-10T01:22:43.976Z,99578.77
2019-03-10T01:25:11.437Z,99581.63
2019-03-10T01:27:37.596Z,99582.55
2019-03-10T01:30:15.960Z,99569.11
2019-03-10T01:33:14.571Z,99569.66
2019-03-10T01:35:42.591Z,99574.02
2019-03-10T01:38:08.929Z,99574.30
2019-03-10T01:40:35.088Z,99571.28
2019-03-10T01:43:01.379Z,99575.42
2019-03-10T01:45:27.545Z,99572.41
2019-03-10T01:47:53.699Z,99573.49
2019-03-10T01:50:19.884Z,99570.75
2019-03-10T01:52:46.041Z,99568.98
2019-03-10T01:55:12.196Z,99561.21
2019-03-10T01:57:38.499Z,99559.47
2019-03-10T02:00:13.714Z,99551.77
2019-03-10T02:02:39.903Z,99555.84
2019-03-10T02:05:06.163Z,99564.27
2019-03-10T02:07:32.324Z,99559.77
2019-03-10T02:09:58.516Z,99556.06
2019-03-10T02:12:24.771Z,99550.71
2019-03-10T02:14:50.925Z,99546.31
2019-03-10T02:17:17.216Z,99549.78
2019-03-10T02:19:43.376Z,99548.30
2019-03-10T02:22:09.526Z,99549.26
2019-03-10T02:24:35.710Z,99552.22
2019-03-10T02:27:01.876Z,99544.25
2019-03-10T02:29:28.145Z,99554.80
2019-03-10T02:31:54.327Z,99556.67
2019-03-10T02:34:20.489Z,99549.75
2019-03-10T02:36:46.702Z,99550.38
2019-03-10T02:39:12.883Z,99562.98
2019-03-10T02:41:39.036Z,99546.03
2019-03-10T02:44:05.191Z,99544.81
2019-03-10T02:46:31.389Z,99546.64
2019-03-10T02:48:57.649Z,99556.03
2019-03-10T02:51:23.818Z,99549.12
2019-03-10T02:53:50.005Z,99544.40
2019-03-10T02:56:16.162Z,99549.95
2019-03-10T02:58:42.311Z,99548.98
2019-03-10T03:01:08.614Z,99554.96
2019-03-10T03:03:34.767Z,99556.16
2019-03-10T03:06:00.919Z,99551.23
2019-03-10T03:08:27.131Z,99562.48
2019-03-10T03:10:53.274Z,99560.73
2019-03-10T03:13:19.526Z,99567.31
2019-03-10T03:15:45.848Z,99565.92
2019-03-10T03:18:12.016Z,99570.11
2019-03-10T03:20:38.173Z,99567.61
2019-03-10T03:23:04.368Z,99570.73
2019-03-10T03:25:30.518Z,99575.09
2019-03-10T03:27:56.774Z,99570.31
2019-03-10T03:30:22.985Z,99570.34
2019-03-10T03:32:49.124Z,99565.56
2019-03-10T03:35:46.578Z,99569.41
2019-03-10T03:38:14.349Z,99571.53
2019-03-10T03:40:46.872Z,99570.69
2019-03-10T03:43:13.070Z,99568.02
2019-03-10T03:45:39.251Z,99564.95
2019-03-10T03:48:05.418Z,99560.39
2019-03-10T03:50:31.709Z,99563.42
2019-03-10T03:52:57.860Z,99554.14
2019-03-10T03:55:24.012Z,99557.56
2019-03-10T03:57:50.324Z,99555.06
2019-03-10T04:00:16.479Z,99553.95
2019-03-10T04:02:42.628Z,99567.30
2019-03-10T04:05:09.329Z,99557.97
2019-03-10T04:07:35.466Z,99554.59
2019-03-10T04:10:02.127Z,99552.28
2019-03-10T04:12:28.332Z,99551.13
2019-03-10T04:14:54.499Z,99544.98
2019-03-10T04:17:20.673Z,99550.25
2019-03-10T04:19:46.961Z,99540.86
2019-03-10T04:22:13.130Z,99546.14
2019-03-10T04:24:39.292Z,99546.84
2019-03-10T04:27:05.478Z,99547.41
2019-03-10T04:29:31.649Z,99554.72
2019-03-10T04:31:57.814Z,99553.60
2019-03-10T04:34:24.103Z,99564.12
2019-03-10T04:36:50.261Z,99560.44
2019-03-10T04:39:16.427Z,99553.84
2019-03-10T04:41:42.617Z,99554.12
2019-03-10T04:44:08.878Z,99552.52
2019-03-10T04:46:35.129Z,99554.28
2019-03-10T04:49:01.336Z,99556.69
2019-03-10T04:51:27.499Z,99557.19
2019-03-10T04:53:53.655Z,99556.66
2019-03-10T04:56:27.452Z,99555.89
2019-03-10T04:58:53.713Z,99570.11
2019-03-10T05:01:20.675Z,99569.16
2019-03-10T05:03:46.880Z,99563.70
2019-03-10T05:06:13.049Z,99563.25
2019-03-10T05:08:39.190Z,99576.45
2019-03-10T05:11:05.377Z,99583.06
2019-03-10T05:13:31.540Z,99584.23
2019-03-10T05:15:57.700Z,99588.24
2019-03-10T05:18:23.993Z,99585.19
2019-03-10T05:20:50.150Z,99591.05
2019-03-10T05:23:29.057Z,99593.02
2019-03-10T05:25:55.432Z,99599.23
2019-03-10T05:28:21.586Z,99594.89
2019-03-10T05:30:47.792Z,99602.30
2019-03-10T05:33:13.951Z,99597.22
2019-03-10T05:35:40.110Z,99594.09
2019-03-10T05:38:06.292Z,99600.83
2019-03-10T05:40:33.444Z,99598.67
2019-03-10T05:42:59.601Z,99624.23
2019-03-10T05:45:25.788Z,99626.55
2019-03-10T05:47:52.070Z,99627.95
2019-03-10T05:50:18.323Z,99635.64
2019-03-10T05:52:44.521Z,99637.31
2019-03-10T05:55:10.675Z,99646.61
2019-03-10T05:57:36.839Z,99663.27
2019-03-10T06:00:06.034Z,99664.54
2019-03-10T06:02:32.312Z,99673.36
2019-03-10T06:04:58.467Z,99668.70
2019-03-10T06:07:24.670Z,99675.68
2019-03-10T06:09:50.824Z,99684.88
2019-03-10T06:12:16.988Z,99688.16
2019-03-10T06:14:43.177Z,99695.88
2019-03-10T06:17:09.464Z,99696.34
2019-03-10T06:19:35.726Z,99696.67
2019-03-10T06:22:01.957Z,99698.80
2019-03-10T06:24:28.177Z,99709.52
2019-03-10T06:26:54.329Z,99719.05
2019-03-10T06:29:20.523Z,99710.77
2019-03-10T06:31:46.669Z,99716.72
2019-03-10T06:34:12.818Z,99724.23
2019-03-10T06:36:39.120Z,99718.20
2019-03-10T06:39:05.382Z,99722.56
2019-03-10T06:41:31.583Z,99734.96
2019-03-10T06:43:57.940Z,99732.84
2019-03-10T06:46:24.087Z,99727.39
2019-03-10T06:48:50.253Z,99729.61
2019-03-10T06:51:16.540Z,99734.45
2019-03-10T06:53:42.694Z,99729.98
2019-03-10T06:56:08.879Z,99727.30
2019-03-10T06:58:35.039Z,99722.34
2019-03-10T07:01:01.191Z,99723.61
2019-03-10T07:03:27.350Z,99728.34
2019-03-10T07:05:53.540Z,99745.28
2019-03-10T07:08:19.823Z,99736.63
2019-03-10T07:10:46.233Z,99711.47
2019-03-10T07:13:12.442Z,99721.67
2019-03-10T07:15:38.594Z,99717.10
2019-03-10T07:18:04.764Z,99737.73
2019-03-10T07:20:30.960Z,99732.52
2019-03-10T07:22:57.110Z,99753.12
2019-03-10T07:25:23.269Z,99755.09
2019-03-10T07:27:56.966Z,99760.61
2019-03-10T07:30:30.617Z,99772.17
2019-03-10T07:33:04.313Z,99754.42
2019-03-10T07:35:32.375Z,99763.94
2019-03-10T07:38:03.253Z,99768.86
2019-03-10T07:40:36.886Z,99770.19
2019-03-10T07:43:16.969Z,99762.53
2019-03-10T07:45:45.073Z,99782.65
2019-03-10T07:48:24.954Z,99771.22
2019-03-10T07:50:53.053Z,99781.20
2019-03-10T07:53:39.009Z,99772.67
2019-03-10T07:56:18.939Z,99774.30
2019-03-10T07:58:58.837Z,99766.91
2019-03-10T08:01:29.735Z,99769.58
2019-03-10T08:03:57.858Z,99762.23
2019-03-10T08:06:43.811Z,99787.85
2019-03-10T08:09:17.653Z,99759.06
2019-03-10T08:11:57.486Z,99755.67
2019-03-10T08:14:25.565Z,99757.57
2019-03-10T08:17:05.828Z,99738.84
2019-03-10T08:19:33.883Z,99723.17
2019-03-10T08:22:04.696Z,99722.14
2019-03-10T08:24:32.784Z,99727.30
2019-03-10T08:27:00.867Z,99722.23
2019-03-10T08:29:34.537Z,99703.48
2019-03-10T08:32:02.609Z,99706.75
2019-03-10T08:34:33.446Z,99705.23
2019-03-10T08:37:04.065Z,99700.97
2019-03-10T08:39:50.137Z,99685.25
2019-03-10T08:42:21.042Z,99714.62
2019-03-10T08:44:55.025Z,99672.45
2019-03-10T08:47:41.427Z,99685.27
2019-03-10T08:50:09.802Z,99670.72
2019-03-10T08:52:37.859Z,99681.17
2019-03-10T08:55:13.947Z,99676.70
2019-03-10T08:57:56.825Z,99677.79
2019-03-10T09:00:27.492Z,99681.89
2019-03-10T09:02:58.066Z,99666.17
2019-03-10T09:05:28.927Z,99667.70
2019-03-10T09:08:05.987Z,99694.40
2019-03-10T09:10:34.051Z,99683.25
2019-03-10T09:13:02.121Z,99680.95
2019-03-10T09:15:46.945Z,99688.64
2019-03-10T09:18:31.505Z,99684.84
2019-03-10T09:21:11.220Z,99672.81
2019-03-10T09:23:41.784Z,99679.47
2019-03-10T09:26:24.685Z,99694.97
2019-03-10T09:28:55.769Z,99688.55
2019-03-10T09:31:23.844Z,99698.75
2019-03-10T09:34:08.174Z,99703.59
2019-03-10T09:36:44.918Z,99685.48
2019-03-10T09:39:24.895Z,99667.58
2019-03-10T09:41:52.955Z,99679.82
2019-03-10T09:44:37.830Z,99699.21
2019-03-10T09:47:05.940Z,99707.88
2019-03-10T09:49:36.619Z,99694.81
2019-03-10T09:55:02.111Z,99674.63
2019-03-10T09:57:46.800Z,99683.59
2019-03-10T10:00:26.956Z,99666.45
2019-03-10T10:03:11.379Z,99675.55
2019-03-10T10:05:39.447Z,99674.11
2019-03-10T10:08:07.505Z,99655.48
2019-03-10T10:10:38.699Z,99680.82
2019-03-10T10:13:21.612Z,99681.35
2019-03-10T10:15:55.343Z,99685.02
2019-03-10T10:18:26.205Z,99680.08
2019-03-10T10:20:59.923Z,99678.15
2019-03-10T10:23:28.059Z,99665.90
2019-03-10T10:25:58.697Z,99664.99
2019-03-10T10:28:38.688Z,99670.30
2019-03-10T10:31:15.298Z,99662.64
2019-03-10T10:33:43.493Z,99646.67
2019-03-10T10:36:11.550Z,99633.67
2019-03-10T10:38:48.180Z,99622.91
2019-03-10T10:41:22.306Z,99630.42
2019-03-10T10:44:02.088Z,99617.72
2019-03-10T10:46:38.883Z,99603.70
2019-03-10T10:49:09.594Z,99599.22
2019-03-10T10:51:55.913Z,99601.71
2019-03-10T10:54:26.605Z,99597.79
2019-03-10T10:56:54.699Z,99586.67
2019-03-10T10:59:22.743Z,99589.72
2019-03-10T11:04:36.585Z,99598.50
2019-03-10T11:07:10.275Z,99588.54
2019-03-10T11:09:54.708Z,99579.77
2019-03-10T11:12:28.508Z,99574.11
2019-03-10T11:15:02.547Z,99586.35
2019-03-10T11:17:30.640Z,99569.86
2019-03-10T11:20:13.556Z,99561.57
2019-03-10T11:22:53.959Z,99543.95
2019-03-10T11:25:22.007Z,99568.64
2019-03-10T11:27:50.072Z,99567.22
2019-03-10T11:30:20.704Z,99578.35
2019-03-10T11:32:48.771Z,99577.67
2019-03-10T11:35:22.628Z,99572.22
2019-03-10T11:37:53.442Z,99571.28
2019-03-10T11:40:27.062Z,99558.36
2019-03-10T11:42:55.120Z,99560.38
2019-03-10T11:45:35.049Z,99559.70
2019-03-10T11:48:03.099Z,99558.63
2019-03-10T11:50:33.742Z,99549.22
2019-03-10T11:53:01.845Z,99544.27
2019-03-10T11:55:29.903Z,99547.73
2019-03-10T11:58:03.755Z,99529.67
2019-03-10T12:03:43.209Z,99512.61
2019-03-10T12:06:23.331Z,99527.83
2019-03-10T12:09:00.229Z,99524.02
2019-03-10T12:11:26.384Z,99531.22
2019-03-10T12:13:52.537Z,99508.88
2019-03-10T12:16:18.724Z,99512.08
2019-03-10T12:18:44.886Z,99510.29
2019-03-10T12:21:11.140Z,99474.33
2019-03-10T12:23:37.441Z,99495.62
2019-03-10T12:26:03.714Z,99506.12
2019-03-10T12:28:29.856Z,99497.27
2019-03-10T12:30:56.037Z,99489.48
2019-03-10T12:33:22.200Z,99473.39
2019-03-10T12:35:48.450Z,99484.61
2019-03-10T12:38:14.769Z,99487.48
2019-03-10T12:40:40.932Z,99489.20
2019-03-10T12:43:07.092Z,99475.55
2019-03-10T12:45:33.291Z,99476.40
2019-03-10T12:47:59.543Z,99479.52
2019-03-10T12:50:25.694Z,99470.41
2019-03-10T12:52:51.929Z,99464.12
2019-03-10T12:55:18.225Z,99458.41
2019-03-10T12:57:44.366Z,99440.23
2019-03-10T13:00:13.722Z,99446.26
2019-03-10T13:02:40.131Z,99438.38
2019-03-10T13:05:07.909Z,99431.20
2019-03-10T13:07:34.193Z,99435.85
2019-03-10T13:10:00.385Z,99427.88
2019-03-10T13:12:26.503Z,99407.61
2019-03-10T13:14:59.389Z,99420.72
2019-03-10T13:17:21.142Z,99419.28
2019-03-10T13:19:47.316Z,99414.07
2019-03-10T13:22:13.608Z,99401.80
2019-03-10T13:24:39.771Z,99389.17
2019-03-10T13:27:05.923Z,99387.61
2019-03-10T13:29:32.124Z,99393.16
2019-03-10T13:31:58.285Z,99378.53
2019-03-10T13:34:24.442Z,99384.54
2019-03-10T13:36:50.641Z,99371.05
2019-03-10T13:39:16.799Z,99367.80
2019-03-10T13:41:42.951Z,99377.50
2019-03-10T13:44:09.239Z,99364.27
2019-03-10T13:46:35.498Z,99348.16
2019-03-10T13:49:01.654Z,99355.92
2019-03-10T13:51:27.849Z,99350.16
2019-03-10T13:53:54.113Z,99358.50
2019-03-10T13:56:20.272Z,99358.44
2019-03-10T13:58:46.463Z,99353.21
2019-03-10T14:01:12.721Z,99335.73
2019-03-10T14:03:39.787Z,99343.61
2019-03-10T14:06:06.038Z,99334.84
2019-03-10T14:08:32.193Z,99329.59
2019-03-10T14:10:58.364Z,99330.52
2019-03-10T14:13:24.683Z,99319.73
2019-03-10T14:15:50.834Z,99326.98
2019-03-10T14:18:16.991Z,99327.23
2019-03-10T14:20:43.195Z,99328.33
2019-03-10T14:23:09.457Z,99336.59
2019-03-10T14:25:35.613Z,99315.48
2019-03-10T14:28:01.913Z,99309.81
2019-03-10T14:30:28.177Z,99317.95
2019-03-10T14:32:54.328Z,99304.11
2019-03-10T14:35:20.514Z,99297.47
2019-03-10T14:37:46.666Z,99301.78
2019-03-10T14:40:18.223Z,99289.10
2019-03-10T14:42:44.390Z,99292.29
2019-03-10T14:45:13.448Z,99284.81
2019-03-10T14:47:39.624Z,99282.67
2019-03-10T14:50:08.804Z,99277.63
2019-03-10T14:52:35.133Z,99274.23
2019-03-10T14:55:01.338Z,99271.75
2019-03-10T14:57:27.515Z,99281.66
2019-03-10T14:59:53.666Z,99271.13
2019-03-10T15:02:19.931Z,99269.73
2019-03-10T15:04:46.139Z,99256.14
2019-03-10T15:07:12.282Z,99260.59
2019-03-10T15:09:38.442Z,99255.88
2019-03-10T15:12:04.621Z,99247.59
2019-03-10T15:14:30.939Z,99251.72
2019-03-10T15:17:01.395Z,99243.52
2019-03-10T15:19:25.288Z,99232.31
2019-03-10T15:21:51.448Z,99238.48
2019-03-10T15:24:17.607Z,99236.78
2019-03-10T15:26:45.914Z,99239.80
2019-03-10T15:29:11.855Z,99252.50
2019-03-10T15:31:38.010Z,99245.80
2019-03-10T15:34:04.201Z,99241.59
2019-03-10T15:36:30.367Z,99237.64
2019-03-10T15:38:56.627Z,99236.77
2019-03-10T15:41:22.827Z,99235.53
2019-03-10T15:43:48.980Z,99241.69
2019-03-10T15:46:15.150Z,99239.64
2019-03-10T15:48:41.334Z,99248.79
2019-03-10T15:51:07.483Z,99246.47
2019-03-10T15:53:33.644Z,99241.79
2019-03-10T15:55:59.886Z,99245.87
2019-03-10T15:58:26.048Z,99246.98
2019-03-10T16:00:52.199Z,99239.61
2019-03-10T16:03:18.390Z,99235.36
2019-03-10T16:05:44.552Z,99228.92
2019-03-10T16:08:10.707Z,99227.42
2019-03-10T16:10:36.907Z,99225.60
2019-03-10T16:13:03.063Z,99225.95
2019-03-10T16:15:30.402Z,99232.17
2019-03-10T16:17:56.592Z,99229.44
2019-03-10T16:20:22.744Z,99232.20
2019-03-10T16:22:48.896Z,99235.08
2019-03-10T16:25:16.196Z,99227.78
2019-03-10T16:27:42.371Z,99228.23
2019-03-10T16:30:25.898Z,99227.87
2019-03-10T16:32:52.074Z,99217.63
2019-03-10T16:35:18.245Z,99215.73
2019-03-10T16:37:44.433Z,99225.32
2019-03-10T16:40:17.085Z,99230.68
2019-03-10T16:42:43.255Z,99229.47
2019-03-10T16:45:14.903Z,99223.58
2019-03-10T16:47:41.067Z,99220.00
2019-03-10T16:50:12.980Z,99217.36
2019-03-10T16:52:39.187Z,99213.31
2019-03-10T16:55:08.159Z,99210.48
2019-03-10T16:57:36.119Z,99200.61
2019-03-10T17:00:03.751Z,99200.33
2019-03-10T17:02:31.208Z,99201.61
2019-03-10T17:04:57.473Z,99197.68
2019-03-10T17:07:23.664Z,99193.75
2019-03-10T17:09:49.819Z,99187.73
2019-03-10T17:12:15.985Z,99187.18
2019-03-10T17:14:42.175Z,99185.69
2019-03-10T17:17:08.334Z,99182.55
2019-03-10T17:19:34.488Z,99183.14
2019-03-10T17:22:00.719Z,99174.34
2019-03-10T17:24:26.979Z,99169.41
2019-03-10T17:26:53.144Z,99161.47
2019-03-10T17:29:19.328Z,99158.43
2019-03-10T17:31:45.587Z,99151.99
2019-03-10T17:34:11.731Z,99144.38
2019-03-10T17:36:37.935Z,99146.48
2019-03-10T17:39:04.995Z,99138.66
2019-03-10T17:41:31.187Z,99139.87
2019-03-10T17:43:57.371Z,99138.28
2019-03-10T17:46:23.540Z,99133.55
2019-03-10T17:48:49.707Z,99139.05
2019-03-10T17:51:15.904Z,99130.73
2019-03-10T17:53:42.216Z,99134.17
2019-03-10T17:56:08.437Z,99130.27
2019-03-10T17:58:35.518Z,99122.02
2019-03-10T18:01:01.750Z,99113.75
2019-03-10T18:03:28.021Z,99108.05
2019-03-10T18:05:54.218Z,99104.44
2019-03-10T18:08:20.390Z,99098.77
2019-03-10T18:10:46.540Z,99083.81
2019-03-10T18:13:12.747Z,99080.82
2019-03-10T18:15:38.997Z,99067.88
2019-03-10T18:18:05.261Z,99066.75
2019-03-10T18:20:31.556Z,99060.23
2019-03-10T18:22:57.712Z,99052.19
2019-03-10T18:25:23.874Z,99056.53
2019-03-10T18:27:50.064Z,99058.55
2019-03-10T18:30:20.080Z,99052.86
2019-03-10T18:32:46.243Z,99046.31
2019-03-10T18:35:12.427Z,99033.29
2019-03-10T18:37:38.579Z,99030.59
2019-03-10T18:40:10.956Z,99020.91
2019-03-10T18:42:37.137Z,99016.76
2019-03-10T18:45:06.505Z,99013.00
2019-03-10T18:47:32.656Z,99004.23
2019-03-10T18:49:58.850Z,99005.06
2019-03-10T18:52:25.008Z,98993.82
2019-03-10T18:54:51.189Z,98989.88
2019-03-10T18:57:17.388Z,98988.97
2019-03-10T18:59:43.553Z,98994.00
2019-03-10T19:02:09.825Z,98986.56
2019-03-10T19:04:36.002Z,98974.50
2019-03-10T19:07:02.490Z,98971.59
2019-03-10T19:09:28.648Z,98964.52
2019-03-10T19:11:54.853Z,98960.66
2019-03-10T19:14:21.109Z,98953.74
2019-03-10T19:16:47.590Z,98950.67
2019-03-10T19:19:13.896Z,98944.29
2019-03-10T19:21:40.153Z,98936.30
2019-03-10T19:24:06.307Z,98933.10
2019-03-10T19:26:32.593Z,98935.02
2019-03-10T19:28:58.755Z,98921.54
2019-03-10T19:31:24.922Z,98922.82
2019-03-10T19:33:51.208Z,98916.00
2019-03-10T19:36:17.372Z,98911.36
2019-03-10T19:38:43.539Z,98901.91
2019-03-10T19:41:09.720Z,98901.34
2019-03-10T19:43:35.993Z,98902.91
2019-03-10T19:46:02.148Z,98894.45
2019-03-10T19:48:28.345Z,98894.77
2019-03-10T19:50:54.502Z,98895.95
2019-03-10T19:53:20.755Z,98893.98
2019-03-10T19:55:46.972Z,98894.56
2019-03-10T19:58:13.127Z,98891.27
2019-03-10T20:00:39.433Z,98889.17
2019-03-10T20:03:05.631Z,98887.45
2019-03-10T20:05:31.789Z,98887.59
2019-03-10T20:07:57.968Z,98883.33
2019-03-10T20:10:24.145Z,98880.36
2019-03-10T20:12:50.308Z,98885.97
2019-03-10T20:15:23.581Z,98877.30
2019-03-10T20:17:49.770Z,98882.73
2019-03-10T20:20:26.570Z,98873.66
2019-03-10T20:22:52.925Z,98868.50
2019-03-10T20:25:19.089Z,98870.09
2019-03-10T20:27:45.248Z,98862.22
2019-03-10T20:30:17.066Z,98867.31
2019-03-10T20:32:43.226Z,98861.89
2019-03-10T20:35:09.391Z,98859.47
2019-03-10T20:37:35.683Z,98854.95
2019-03-10T20:40:04.741Z,98857.97
2019-03-10T20:42:30.895Z,98852.96
2019-03-10T20:44:57.083Z,98853.95
2019-03-10T20:47:23.239Z,98844.88
2019-03-10T20:49:49.466Z,98853.00
2019-03-10T20:52:15.793Z,98854.05
2019-03-10T20:54:41.949Z,98846.45
2019-03-10T20:57:08.099Z,98843.52
2019-03-10T20:59:34.292Z,98833.68
2019-03-10T21:02:00.447Z,98829.59
2019-03-10T21:04:26.599Z,98843.55
2019-03-10T21:06:52.887Z,98844.52
2019-03-10T21:09:19.042Z,98839.01
2019-03-10T21:11:45.315Z,98840.17
2019-03-10T21:14:11.503Z,98844.52
2019-03-10T21:16:37.667Z,98847.56
2019-03-10T21:19:03.927Z,98839.59
2019-03-10T21:21:30.133Z,98837.98
2019-03-10T21:23:56.296Z,98843.11
2019-03-10T21:26:22.452Z,98835.37
2019-03-10T21:28:48.635Z,98831.90
2019-03-10T21:31:14.792Z,98833.53
2019-03-10T21:33:40.949Z,98830.62
2019-03-10T21:36:07.135Z,98828.82
2019-03-10T21:38:33.290Z,98828.55
2019-03-10T21:40:59.544Z,98836.30
2019-03-10T21:43:25.731Z,98836.25
2019-03-10T21:45:51.888Z,98837.36
2019-03-10T21:48:18.150Z,98834.70
2019-03-10T21:50:44.327Z,98827.55
2019-03-10T21:53:10.584Z,98841.46
2019-03-10T21:55:36.852Z,98836.29
2019-03-10T21:58:03.036Z,98826.65
2019-03-10T22:00:29.358Z,98827.77
2019-03-10T22:02:55.616Z,98829.59
2019-03-10T22:05:22.703Z,98831.74
2019-03-10T22:07:49.047Z,98835.87
2019-03-10T22:10:26.977Z,98834.49
2019-03-10T22:12:47.162Z,98831.38
2019-03-10T22:15:17.541Z,98834.45
2019-03-10T22:17:44.053Z,98832.94
2019-03-10T22:20:14.456Z,98833.39
2019-03-10T22:22:48.502Z,98822.91
2019-03-10T22:25:13.002Z,98822.72
2019-03-10T22:27:38.252Z,98824.69
2019-03-10T22:30:08.017Z,98818.75
2019-03-10T22:32:34.186Z,98825.98
2019-03-10T22:35:00.424Z,98822.30
2019-03-10T22:37:26.642Z,98821.13
2019-03-10T22:39:52.799Z,98827.02
2019-03-10T22:42:19.141Z,98825.30
2019-03-10T22:44:46.625Z,98826.94
2019-03-10T22:47:12.917Z,98830.05
2019-03-10T22:49:39.224Z,98829.62
2019-03-10T22:52:05.370Z,98839.08
2019-03-10T22:54:31.532Z,98836.25
2019-03-10T22:56:57.723Z,98834.76
2019-03-10T22:59:23.883Z,98835.81
2019-03-10T23:01:50.037Z,98842.18
2019-03-10T23:04:17.811Z,98847.34
2019-03-10T23:06:44.072Z,98836.35
2019-03-10T23:09:10.320Z,98842.75
2019-03-10T23:11:36.519Z,98844.27
2019-03-10T23:14:02.775Z,98852.03
2019-03-10T23:16:28.932Z,98849.84
2019-03-10T23:18:55.129Z,98853.31
2019-03-10T23:21:21.286Z,98853.11
2019-03-10T23:23:47.443Z,98850.61
2019-03-10T23:26:13.639Z,98850.94
2019-03-10T23:28:39.894Z,98856.03
2019-03-10T23:31:06.043Z,98861.20
2019-03-10T23:33:32.250Z,98853.59
2019-03-10T23:35:58.504Z,98862.61
2019-03-10T23:38:24.662Z,98858.78
2019-03-10T23:40:50.853Z,98869.94
2019-03-10T23:43:17.009Z,98865.98
2019-03-10T23:45:43.173Z,98870.78
2019-03-10T23:48:09.462Z,98868.55
2019-03-10T23:50:35.625Z,98871.98
2019-03-10T23:53:01.830Z,98875.41
2019-03-10T23:55:28.192Z,98870.03
2019-03-10T23:57:54.345Z,98870.38
